Time;durP1;ratioP1;P1;durP2;ratioP2;P2;SDS_P1;SDS_P2;PMS_P1;PMS_P2;Temp;Humidity;BMP_temperature;BMP_pressure;BME280_temperature;BME280_humidity;BME280_pressure;Samples;Min_cycle;Max_cycle;Signal;HPM_P1;HPM_P2
2022/12/24 00:00:57;;;;;;;;;;;;;;;6.25;78.17;100247.72;5109006;28;19926;-62
2022/12/24 00:03:22;;;;;;;;;;;;;;;6.25;77.98;100248.53;5100607;28;19927;-62
2022/12/24 00:05:47;;;;;;;;;;;;;;;6.25;78.14;100245.09;5086867;28;19923;-62
2022/12/24 00:08:13;;;;;;;;;;;;;;;6.24;77.89;100259.09;5112439;28;20497;-59
2022/12/24 00:10:38;;;;;;;;;;;;;;;6.20;77.96;100255.75;5104522;28;20331;-58
2022/12/24 00:13:03;;;;;;;;;;;;;;;6.20;78.11;100262.75;5102797;28;19924;-59
2022/12/24 00:15:29;;;;;;;;;;;;;;;6.19;78.08;100259.31;5105034;28;19924;-61
2022/12/24 00:17:54;;;;;;;;;;;;;;;6.19;77.69;100259.31;5099999;28;19923;-60
2022/12/24 00:20:19;;;;;;;;;;;;;;;6.17;77.88;100247.22;5104286;28;19920;-62
2022/12/24 00:22:45;;;;;;;;;;;;;;;6.14;77.59;100250.84;5105655;27;20421;-61
2022/12/24 00:25:10;;;;;;;;;;;;;;;6.14;77.93;100255.19;5109011;27;20011;-60
2022/12/24 00:27:35;;;;;;;;;;;;;;;6.13;77.68;100258.72;5109381;27;20019;-62
2022/12/24 00:30:01;;;;;;;;;;;;;;;6.12;77.71;100259.66;5112093;27;20442;-61
2022/12/24 00:32:26;;;;;;;;;;;;;;;6.12;77.59;100254.44;5109060;27;19951;-62
2022/12/24 00:34:51;;;;;;;;;;;;;;;6.14;77.71;100249.97;5113169;27;19998;-62
2022/12/24 00:37:16;;;;;;;;;;;;;;;6.07;77.83;100254.63;5111527;27;19924;-62
2022/12/24 00:39:42;;;;;;;;;;;;;;;6.06;77.60;100253.81;5114572;27;19920;-63
2022/12/24 00:42:07;;;;;;;;;;;;;;;6.06;77.33;100256.41;5108643;27;19934;-63
2022/12/24 00:44:32;;;;;;;;;;;;;;;6.06;77.43;100261.63;5114243;27;19926;-61
2022/12/24 00:46:58;;;;;;;;;;;;;;;6.06;77.29;100266.00;5089640;28;19920;-61
2022/12/24 00:49:23;;;;;;;;;;;;;;;5.98;77.20;100265.50;5111101;27;20014;-62
2022/12/24 00:51:49;;;;;;;;;;;;;;;5.98;77.33;100265.50;5112104;27;19924;-62
2022/12/24 00:54:14;;;;;;;;;;;;;;;5.98;77.29;100266.31;5110368;27;20442;-61
2022/12/24 00:56:40;;;;;;;;;;;;;;;5.95;77.13;100269.09;5107988;27;20423;-60
2022/12/24 00:59:05;;;;;;;;;;;;;;;6.00;77.28;100269.75;5113032;27;19938;-62
2022/12/24 01:01:30;;;;;;;;;;;;;;;6.01;76.99;100271.44;5109273;27;19920;-60
2022/12/24 01:05:09;;;;;;;;;;;;;;;6.04;76.81;100270.47;5115787;27;19915;-60
2022/12/24 01:06:41;;;;;;;;;;;;;;;6.00;76.67;100274.97;5110710;27;20371;-61
2022/12/24 01:09:07;;;;;;;;;;;;;;;6.00;76.79;100274.97;5117620;27;19930;-60
2022/12/24 01:11:32;;;;;;;;;;;;;;;6.00;76.57;100280.19;5110101;27;19923;-61
2022/12/24 01:13:57;;;;;;;;;;;;;;;5.97;76.78;100280.31;5112908;27;20343;-62
2022/12/24 01:16:22;;;;;;;;;;;;;;;5.95;76.66;100284.78;5114704;27;19924;-60
2022/12/24 01:18:48;;;;;;;;;;;;;;;5.93;76.61;100276.16;5111917;27;19923;-61
2022/12/24 01:21:13;;;;;;;;;;;;;;;5.89;76.62;100285.91;5114793;27;19916;-59
2022/12/24 01:23:39;;;;;;;;;;;;;;;5.89;76.60;100282.44;5114433;27;19915;-60
2022/12/24 01:26:04;;;;;;;;;;;;;;;5.87;76.54;100287.72;5089630;28;19924;-61
2022/12/24 01:28:30;;;;;;;;;;;;;;;5.85;76.42;100286.94;5110577;27;20370;-61
2022/12/24 01:30:56;;;;;;;;;;;;;;;5.85;76.72;100292.16;5100148;27;20378;-57
2022/12/24 01:33:21;;;;;;;;;;;;;;;5.85;76.47;100288.69;5105410;27;19920;-57
2022/12/24 01:35:46;;;;;;;;;;;;;;;5.82;76.98;100297.53;5104171;27;20031;-62
2022/12/24 01:38:13;;;;;;;;;;;;;;;5.79;76.78;100302.88;5109312;27;19915;-58
2022/12/24 01:43:24;;;;;;;;;;;;;;;5.74;77.10;100305.69;5109158;27;19935;-61
2022/12/24 01:45:54;;;;;;;;;;;;;;;5.77;77.14;100316.00;5091335;27;19923;-60
2022/12/24 01:48:25;;;;;;;;;;;;;;;5.73;76.81;100311.84;5092700;27;19965;-60
2022/12/24 01:50:54;;;;;;;;;;;;;;;5.68;76.89;100311.19;5111253;27;19931;-59
2022/12/24 01:53:20;;;;;;;;;;;;;;;5.65;77.19;100313.94;5093113;28;20487;-61
2022/12/24 01:55:46;;;;;;;;;;;;;;;5.65;77.33;100317.41;5108225;27;20046;-60
2022/12/24 01:58:13;;;;;;;;;;;;;;;5.66;77.15;100318.25;5089653;28;20344;-59
2022/12/24 02:00:39;;;;;;;;;;;;;;;5.63;77.01;100315.78;5111179;27;19920;-57
2022/12/24 02:03:04;;;;;;;;;;;;;;;5.67;77.46;100317.34;5109197;27;19923;-59
2022/12/24 02:05:33;;;;;;;;;;;;;;;5.66;76.92;100310.44;5106589;27;20370;-62
2022/12/24 02:07:59;;;;;;;;;;;;;;;5.66;77.15;100315.66;5107363;27;20286;-60
2022/12/24 02:10:24;;;;;;;;;;;;;;;5.71;76.67;100324.09;5112856;27;20416;-58
2022/12/24 02:12:51;;;;;;;;;;;;;;;5.69;76.71;100317.25;5108182;27;19923;-62
2022/12/24 02:15:17;;;;;;;;;;;;;;;5.69;76.91;100325.94;5108800;27;19920;-58
2022/12/24 02:17:51;;;;;;;;;;;;;;;5.67;77.14;100317.34;5108047;27;19920;-61
2022/12/24 02:20:16;;;;;;;;;;;;;;;5.65;77.17;100321.78;5110239;27;19978;-60
2022/12/24 02:22:44;;;;;;;;;;;;;;;5.63;76.80;100327.06;5111919;27;19946;-61
2022/12/24 02:25:20;;;;;;;;;;;;;;;5.56;77.22;100333.47;5111953;27;19912;-61
2022/12/24 02:27:48;;;;;;;;;;;;;;;5.59;77.53;100340.31;5111015;27;19916;-62
2022/12/24 02:30:21;;;;;;;;;;;;;;;5.52;77.76;100336.28;5108063;27;19922;-60
2022/12/24 02:32:46;;;;;;;;;;;;;;;5.53;77.41;100345.78;5108525;28;19922;-61
2022/12/24 02:35:19;;;;;;;;;;;;;;;5.52;77.73;100339.72;5110773;27;19919;-63
2022/12/24 02:37:57;;;;;;;;;;;;;;;5.55;77.40;100336.13;5108243;27;20300;-62
2022/12/24 02:40:49;;;;;;;;;;;;;;;5.57;77.06;100340.38;5105790;27;19915;-62
2022/12/24 02:43:18;;;;;;;;;;;;;;;5.54;77.36;100340.50;5103032;27;19931;-60
2022/12/24 02:45:45;;;;;;;;;;;;;;;5.46;77.05;100339.97;5112760;27;19958;-62
2022/12/24 02:48:12;;;;;;;;;;;;;;;5.43;77.60;100340.97;5110377;27;19920;-62
2022/12/24 02:50:37;;;;;;;;;;;;;;;5.46;77.28;100343.44;5111278;27;19922;-62
2022/12/24 02:53:04;;;;;;;;;;;;;;;5.42;77.38;100341.88;5109968;27;19924;-63
2022/12/24 02:55:43;;;;;;;;;;;;;;;5.46;77.30;100343.44;5105567;28;20394;-60
2022/12/24 02:58:14;;;;;;;;;;;;;;;5.47;77.32;100350.38;5109111;27;19928;-62
2022/12/24 03:00:48;;;;;;;;;;;;;;;5.50;77.65;100362.44;5111817;27;19926;-61
2022/12/24 03:03:19;;;;;;;;;;;;;;;5.47;77.50;100359.94;5104045;28;20389;-60
2022/12/24 03:05:48;;;;;;;;;;;;;;;5.46;77.43;100361.72;5111319;27;19920;-59
2022/12/24 03:08:25;;;;;;;;;;;;;;;5.46;77.65;100372.16;5109057;28;19928;-62
2022/12/24 03:10:56;;;;;;;;;;;;;;;5.44;77.52;100366.16;5110440;28;19919;-64
2022/12/24 03:13:22;;;;;;;;;;;;;;;5.45;77.19;100375.69;5106222;28;20279;-57
2022/12/24 03:15:48;;;;;;;;;;;;;;;5.44;77.51;100371.38;5087569;28;19927;-58
2022/12/24 03:18:17;;;;;;;;;;;;;;;5.44;77.47;100366.16;5109292;28;19916;-60
2022/12/24 03:20:45;;;;;;;;;;;;;;;5.43;77.29;100368.84;5109308;28;19959;-59
2022/12/24 03:23:11;;;;;;;;;;;;;;;5.45;77.29;100375.69;5108476;28;19922;-61
2022/12/24 03:25:38;;;;;;;;;;;;;;;5.48;77.28;100378.16;5109970;28;19994;-58
2022/12/24 03:28:05;;;;;;;;;;;;;;;5.44;77.26;100381.81;5110690;28;20339;-59
2022/12/24 03:30:31;;;;;;;;;;;;;;;5.42;77.49;100383.63;5111273;28;20014;-62
2022/12/24 03:32:56;;;;;;;;;;;;;;;5.43;77.37;100379.28;5086320;28;20003;-62
2022/12/24 03:35:21;;;;;;;;;;;;;;;5.42;77.35;100383.63;5108507;28;19912;-58
2022/12/24 03:37:46;;;;;;;;;;;;;;;5.42;77.26;100388.00;5106542;28;20309;-61
2022/12/24 03:40:12;;;;;;;;;;;;;;;5.41;77.81;100386.31;5087606;28;19923;-58
2022/12/24 03:42:37;;;;;;;;;;;;;;;5.35;77.43;100387.44;5102753;28;19947;-60
2022/12/24 03:45:03;;;;;;;;;;;;;;;5.36;77.60;100388.25;5088098;28;19975;-60
2022/12/24 03:47:30;;;;;;;;;;;;;;;5.35;77.42;100395.25;5105310;28;20371;-63
2022/12/24 03:49:55;;;;;;;;;;;;;;;5.39;77.72;100399.41;5109448;28;19962;-61
2022/12/24 03:52:20;;;;;;;;;;;;;;;5.37;77.63;100390.78;5108733;28;20386;-58
2022/12/24 03:54:46;;;;;;;;;;;;;;;5.42;77.79;100404.50;5114686;28;19916;-61
2022/12/24 03:57:11;;;;;;;;;;;;;;;5.48;77.61;100403.41;5090955;28;19932;-62
2022/12/24 03:59:36;;;;;;;;;;;;;;;5.48;77.32;100401.66;5114652;27;20024;-59
2022/12/24 04:02:01;;;;;;;;;;;;;;;5.52;76.90;100399.75;5108959;27;19928;-62
2022/12/24 04:04:27;;;;;;;;;;;;;;;5.53;77.35;100405.81;5112070;27;20014;-61
2022/12/24 04:06:52;;;;;;;;;;;;;;;5.54;77.59;100404.91;5110880;27;19926;-59
2022/12/24 04:09:17;;;;;;;;;;;;;;;5.56;77.21;100417.00;5109596;27;19926;-60
2022/12/24 04:11:43;;;;;;;;;;;;;;;5.56;76.99;100418.72;5113937;27;20375;-62
2022/12/24 04:14:08;;;;;;;;;;;;;;;5.57;77.12;100417.81;5095110;28;19969;-61
2022/12/24 04:16:33;;;;;;;;;;;;;;;5.57;77.20;100421.31;5115429;27;19924;-62
2022/12/24 04:18:59;;;;;;;;;;;;;;;5.60;77.00;100418.53;5107296;27;19947;-58
2022/12/24 04:21:24;;;;;;;;;;;;;;;5.59;77.22;100416.00;5104666;27;19968;-60
2022/12/24 04:23:50;;;;;;;;;;;;;;;5.60;77.55;100422.91;5113385;27;19922;-60
2022/12/24 04:26:15;;;;;;;;;;;;;;;5.58;77.16;100415.16;5109745;28;19916;-59
2022/12/24 04:28:41;;;;;;;;;;;;;;;5.60;77.01;100415.94;5113059;27;19993;-57
2022/12/24 04:31:09;;;;;;;;;;;;;;;5.60;77.46;100413.31;5109560;27;19949;-60
2022/12/24 04:33:35;;;;;;;;;;;;;;;5.56;77.42;100419.59;5115039;27;19915;-60
2022/12/24 04:36:01;;;;;;;;;;;;;;;5.58;77.19;100419.53;5115689;27;19935;-62
2022/12/24 04:38:26;;;;;;;;;;;;;;;5.58;77.09;100430.84;5107276;27;19911;-61
2022/12/24 04:41:05;;;;;;;;;;;;;;;5.56;77.00;100429.19;5107399;27;19985;-62
2022/12/24 04:43:30;;;;;;;;;;;;;;;5.57;77.13;100423.91;5108211;27;20443;-59
2022/12/24 04:46:02;;;;;;;;;;;;;;;5.57;76.83;100431.75;5113292;27;19994;-65
2022/12/24 04:48:27;;;;;;;;;;;;;;;5.55;76.96;100430.94;5107722;27;19955;-59
2022/12/24 04:50:53;;;;;;;;;;;;;;;5.56;76.95;100431.78;5111663;27;19958;-61
2022/12/24 04:53:18;;;;;;;;;;;;;;;5.53;77.12;100444.97;5110523;27;20304;-60
2022/12/24 04:55:44;;;;;;;;;;;;;;;5.54;77.08;100444.91;5112488;27;20390;-59
2022/12/24 04:58:10;;;;;;;;;;;;;;;5.54;77.32;100451.88;5110472;27;19915;-57
2022/12/24 05:00:35;;;;;;;;;;;;;;;5.55;76.91;100456.19;5113397;27;19916;-60
2022/12/24 05:03:00;;;;;;;;;;;;;;;5.55;77.46;100453.56;5107902;27;19920;-60
2022/12/24 05:05:26;;;;;;;;;;;;;;;5.56;77.18;100456.13;5104688;27;19920;-61
2022/12/24 05:07:51;;;;;;;;;;;;;;;5.56;77.20;100461.38;5109628;27;20276;-64
2022/12/24 05:10:16;;;;;;;;;;;;;;;5.56;77.23;100466.59;5112632;27;19919;-57
2022/12/24 05:12:42;;;;;;;;;;;;;;;5.57;77.73;100472.63;5110753;27;19924;-60
2022/12/24 05:15:07;;;;;;;;;;;;;;;5.58;77.19;100466.50;5113523;27;19920;-59
2022/12/24 05:17:32;;;;;;;;;;;;;;;5.56;77.33;100461.38;5110137;27;19920;-60
2022/12/24 05:19:58;;;;;;;;;;;;;;;5.57;77.29;100475.25;5108795;27;20297;-59
2022/12/24 05:27:53;;;;;;;;;;;;;;;5.56;77.14;100473.53;5113578;27;19960;-62
2022/12/24 05:30:18;;;;;;;;;;;;;;;5.55;77.41;100482.28;5111373;27;20863;-59
2022/12/24 05:32:44;;;;;;;;;;;;;;;5.55;77.25;100477.06;5115698;27;20430;-62
2022/12/24 05:35:09;;;;;;;;;;;;;;;5.55;77.02;100482.28;5093182;28;20023;-61
2022/12/24 05:37:34;;;;;;;;;;;;;;;5.53;76.90;100478.88;5108240;27;19932;-61
2022/12/24 05:40:00;;;;;;;;;;;;;;;5.54;77.15;100481.44;5115088;27;19918;-58
2022/12/24 05:42:25;;;;;;;;;;;;;;;5.52;77.05;100487.66;5112066;27;20394;-61
2022/12/24 05:44:50;;;;;;;;;;;;;;;5.53;77.59;100486.72;5114672;27;19920;-60
2022/12/24 05:47:16;;;;;;;;;;;;;;;5.53;76.90;100489.31;5109087;27;19939;-60
2022/12/24 05:49:41;;;;;;;;;;;;;;;5.47;76.82;100486.06;5109701;27;19986;-60
2022/12/24 05:52:06;;;;;;;;;;;;;;;5.47;77.22;100490.44;5107306;27;19922;-61
2022/12/24 05:54:31;;;;;;;;;;;;;;;5.47;77.02;100491.28;5104933;27;19920;-60
2022/12/24 05:56:57;;;;;;;;;;;;;;;5.46;77.28;100497.41;5108825;27;19923;-62
2022/12/24 05:59:22;;;;;;;;;;;;;;;5.47;77.17;100500.88;5112974;27;20371;-59
2022/12/24 06:01:47;;;;;;;;;;;;;;;5.47;77.45;100512.16;5112055;27;20026;-62
2022/12/24 06:04:13;;;;;;;;;;;;;;;5.46;77.17;100510.47;5112422;27;19923;-61
2022/12/24 06:06:38;;;;;;;;;;;;;;;5.46;77.10;100509.59;5093088;27;20302;-60
2022/12/24 06:09:03;;;;;;;;;;;;;;;5.43;77.17;100520.19;5104255;27;20026;-60
2022/12/24 06:11:29;;;;;;;;;;;;;;;5.42;77.49;100529.75;5105173;27;19923;-63
2022/12/24 06:13:54;;;;;;;;;;;;;;;5.39;77.73;100529.88;5105406;27;19928;-61
2022/12/24 06:16:20;;;;;;;;;;;;;;;5.36;77.61;100530.03;5111240;27;19970;-60
2022/12/24 06:18:46;;;;;;;;;;;;;;;5.37;77.18;100529.09;5113526;27;19920;-61
2022/12/24 06:21:11;;;;;;;;;;;;;;;5.34;77.64;100526.63;5107723;27;19912;-62
2022/12/24 06:23:38;;;;;;;;;;;;;;;5.35;77.26;100523.09;5112002;28;19916;-61
2022/12/24 06:26:03;;;;;;;;;;;;;;;5.37;77.38;100526.47;5093716;28;20378;-61
2022/12/24 06:28:30;;;;;;;;;;;;;;;5.34;77.59;100518.78;5112703;27;19947;-61
2022/12/24 06:30:56;;;;;;;;;;;;;;;5.28;77.47;100525.09;5108492;27;19920;-59
2022/12/24 06:33:21;;;;;;;;;;;;;;;5.29;77.23;100533.78;5091789;28;19927;-57
2022/12/24 06:35:47;;;;;;;;;;;;;;;5.19;77.51;100539.34;5110028;27;19938;-58
2022/12/24 06:38:13;;;;;;;;;;;;;;;5.22;77.71;100545.38;5108689;27;19924;-62
2022/12/24 06:40:38;;;;;;;;;;;;;;;5.13;77.57;100550.00;5114875;27;19915;-59
2022/12/24 06:43:04;;;;;;;;;;;;;;;5.10;77.39;100555.34;5109488;27;19977;-57
2022/12/24 06:45:29;;;;;;;;;;;;;;;5.13;77.65;100551.78;5111962;27;20374;-60
2022/12/24 06:47:55;;;;;;;;;;;;;;;5.14;77.68;100553.47;5103041;27;19924;-60
2022/12/24 06:50:20;;;;;;;;;;;;;;;5.17;77.71;100556.81;5111307;27;20298;-58
2022/12/24 06:52:46;;;;;;;;;;;;;;;5.18;77.58;100558.53;5113004;27;20370;-60
2022/12/24 06:55:11;;;;;;;;;;;;;;;5.14;77.58;100566.53;5107831;27;19919;-58
2022/12/24 06:57:36;;;;;;;;;;;;;;;5.13;77.60;100570.88;5102470;28;20072;-57
2022/12/24 07:00:02;;;;;;;;;;;;;;;5.16;77.53;100568.16;5103240;27;19935;-61
2022/12/24 07:02:27;;;;;;;;;;;;;;;5.18;77.87;100579.38;5100862;27;19920;-62
2022/12/24 07:04:53;;;;;;;;;;;;;;;5.19;77.33;100588.06;5108915;27;20338;-61
2022/12/24 07:07:18;;;;;;;;;;;;;;;5.21;77.72;100588.84;5106280;28;19916;-57
2022/12/24 07:09:43;;;;;;;;;;;;;;;5.25;77.51;100594.78;5114620;27;19915;-64
2022/12/24 07:12:08;;;;;;;;;;;;;;;5.23;77.18;100596.59;5109000;28;20369;-58
2022/12/24 07:14:34;;;;;;;;;;;;;;;5.22;77.19;100606.19;5106139;28;19916;-59
2022/12/24 07:16:59;;;;;;;;;;;;;;;5.19;77.30;100604.56;5088603;28;19920;-60
2022/12/24 07:19:25;;;;;;;;;;;;;;;5.12;77.65;100608.31;5108192;28;20433;-58
2022/12/24 07:21:50;;;;;;;;;;;;;;;5.17;77.79;100608.13;5112556;28;20011;-57
2022/12/24 07:24:15;;;;;;;;;;;;;;;5.15;77.45;100617.75;5112412;28;20052;-61
2022/12/24 07:26:41;;;;;;;;;;;;;;;5.13;77.26;100619.59;5111185;28;20035;-57
2022/12/24 07:29:06;;;;;;;;;;;;;;;5.09;77.35;100631.03;5106838;28;19926;-61
2022/12/24 07:31:32;;;;;;;;;;;;;;;5.12;77.30;100631.78;5113785;27;20010;-63
2022/12/24 07:33:57;;;;;;;;;;;;;;;5.17;77.11;100632.47;5112117;27;19919;-61
2022/12/24 07:36:23;;;;;;;;;;;;;;;5.18;77.19;100636.78;5112036;27;19930;-61
2022/12/24 07:38:48;;;;;;;;;;;;;;;5.18;77.22;100648.97;5119392;27;19961;-57
2022/12/24 07:41:14;;;;;;;;;;;;;;;5.19;77.42;100650.66;5112476;27;19915;-58
2022/12/24 07:43:40;;;;;;;;;;;;;;;5.17;77.24;100663.78;5115483;27;19920;-59
2022/12/24 07:46:05;;;;;;;;;;;;;;;5.12;77.43;100659.63;5112276;27;19920;-60
2022/12/24 07:48:31;;;;;;;;;;;;;;;5.07;77.50;100665.00;5118384;27;19923;-62
2022/12/24 07:50:57;;;;;;;;;;;;;;;5.06;77.94;100668.53;5109815;27;20733;-59
2022/12/24 07:53:23;;;;;;;;;;;;;;;5.03;78.19;100671.25;5119168;27;19959;-61
2022/12/24 07:55:49;;;;;;;;;;;;;;;5.07;77.96;100675.44;5111516;27;19943;-60
2022/12/24 07:58:14;;;;;;;;;;;;;;;5.11;77.94;100671.81;5119631;27;19994;-60
2022/12/24 08:00:40;;;;;;;;;;;;;;;5.11;78.17;100682.25;5105370;27;20504;-60
2022/12/24 08:03:05;;;;;;;;;;;;;;;5.11;77.88;100684.84;5114928;27;19923;-61
2022/12/24 08:05:36;;;;;;;;;;;;;;;5.10;78.14;100677.94;5107166;27;19916;-63
2022/12/24 08:08:02;;;;;;;;;;;;;;;5.12;78.46;100683.94;5104907;28;19920;-62
2022/12/24 08:10:27;;;;;;;;;;;;;;;5.19;78.30;100682.84;5110659;27;19923;-61
2022/12/24 08:12:52;;;;;;;;;;;;;;;5.22;77.92;100683.63;5109166;27;19916;-61
2022/12/24 08:15:18;;;;;;;;;;;;;;;5.24;77.62;100694.84;5110409;27;20014;-62
2022/12/24 08:17:43;;;;;;;;;;;;;;;5.25;77.44;100693.94;5114795;27;20343;-62
2022/12/24 08:20:09;;;;;;;;;;;;;;;5.20;77.53;100688.88;5101971;27;19926;-61
2022/12/24 08:22:35;;;;;;;;;;;;;;;5.25;77.36;100688.72;5099186;27;19958;-61
2022/12/24 08:25:00;;;;;;;;;;;;;;;5.27;77.20;100695.59;5101576;28;19934;-62
2022/12/24 08:27:25;;;;;;;;;;;;;;;5.26;77.75;100693.03;5104267;27;19935;-61
2022/12/24 08:29:51;;;;;;;;;;;;;;;5.25;77.73;100706.97;5110381;27;19927;-63
2022/12/24 08:32:17;;;;;;;;;;;;;;;5.21;77.30;100702.78;5107119;27;19919;-58
2022/12/24 08:34:42;;;;;;;;;;;;;;;5.14;77.55;100700.41;5111400;27;19923;-60
2022/12/24 08:37:07;;;;;;;;;;;;;;;5.13;77.77;100710.91;5110122;27;19939;-57
2022/12/24 08:39:33;;;;;;;;;;;;;;;5.15;77.96;100714.28;5106465;27;19924;-62
2022/12/24 08:41:58;;;;;;;;;;;;;;;5.13;77.78;100721.34;5105693;27;19945;-61
2022/12/24 08:44:23;;;;;;;;;;;;;;;5.19;78.00;100727.19;5109330;27;20847;-60
2022/12/24 08:46:48;;;;;;;;;;;;;;;5.26;77.61;100726.94;5113746;27;19920;-59
2022/12/24 08:49:14;;;;;;;;;;;;;;;5.26;77.41;100732.16;5104965;27;20019;-62
2022/12/24 08:51:40;;;;;;;;;;;;;;;5.32;77.28;100729.34;5112012;27;19999;-62
2022/12/24 08:54:08;;;;;;;;;;;;;;;5.28;77.21;100731.22;5112862;27;20275;-61
2022/12/24 08:56:36;;;;;;;;;;;;;;;5.16;77.01;100737.72;5105226;28;20415;-59
2022/12/24 08:59:01;;;;;;;;;;;;;;;5.23;77.72;100738.34;5096222;27;20056;-62
2022/12/24 09:01:26;;;;;;;;;;;;;;;5.31;77.82;100740.69;5087563;28;20006;-61
2022/12/24 09:03:52;;;;;;;;;;;;;;;5.34;77.71;100740.59;5108750;27;19930;-60
2022/12/24 09:06:17;;;;;;;;;;;;;;;5.36;77.42;100746.59;5089689;28;20677;-58
2022/12/24 09:08:43;;;;;;;;;;;;;;;5.32;77.56;100748.44;5105582;27;19919;-61
2022/12/24 09:11:11;;;;;;;;;;;;;;;5.33;77.74;100757.16;5109001;27;19926;-59
2022/12/24 09:13:37;;;;;;;;;;;;;;;5.34;77.37;100757.06;5091790;27;19924;-57
2022/12/24 09:16:02;;;;;;;;;;;;;;;5.41;77.37;100762.94;5109775;28;20019;-58
2022/12/24 09:18:31;;;;;;;;;;;;;;;5.49;77.16;100760.91;5092401;28;19923;-60
2022/12/24 09:21:00;;;;;;;;;;;;;;;5.51;76.97;100766.06;5092833;28;19931;-60
2022/12/24 09:23:25;;;;;;;;;;;;;;;5.59;76.91;100764.03;5107616;27;20011;-62
2022/12/24 09:25:50;;;;;;;;;;;;;;;5.58;76.86;100761.47;5109614;27;20018;-62
2022/12/24 09:28:16;;;;;;;;;;;;;;;5.63;76.68;100770.00;5103236;27;19924;-58
2022/12/24 09:30:41;;;;;;;;;;;;;;;5.66;77.01;100764.66;5102810;27;19920;-57
2022/12/24 09:33:06;;;;;;;;;;;;;;;5.63;76.61;100770.00;5104220;27;19951;-58
2022/12/24 09:35:32;;;;;;;;;;;;;;;5.62;76.80;100771.72;5107351;27;19927;-61
2022/12/24 09:38:03;;;;;;;;;;;;;;;5.61;76.59;100764.81;5093718;27;20311;-57
2022/12/24 09:40:35;;;;;;;;;;;;;;;5.65;76.39;100770.78;5099660;27;20006;-61
2022/12/24 09:43:02;;;;;;;;;;;;;;;5.65;76.74;100776.00;5094821;27;20283;-61
2022/12/24 09:45:30;;;;;;;;;;;;;;;5.61;76.66;100775.25;5099436;27;20015;-62
2022/12/24 09:48:11;;;;;;;;;;;;;;;5.62;76.32;100773.50;5083034;27;20829;-59
2022/12/24 09:50:44;;;;;;;;;;;;;;;5.62;76.54;100779.56;5077919;27;19928;-60
2022/12/24 09:53:30;;;;;;;;;;;;;;;5.63;76.59;100778.66;5090575;28;20517;-62
2022/12/24 09:55:57;;;;;;;;;;;;;;;5.68;77.03;100794.16;5057706;28;19930;-61
2022/12/24 09:58:42;;;;;;;;;;;;;;;5.69;76.50;100782.81;5103010;28;20560;-62
2022/12/24 10:01:12;;;;;;;;;;;;;;;5.70;76.58;100792.34;5105928;27;19923;-59
2022/12/24 10:03:37;;;;;;;;;;;;;;;5.72;76.50;100797.53;5102838;27;20349;-61
2022/12/24 10:06:15;;;;;;;;;;;;;;;5.69;76.41;100801.06;5101165;27;20061;-57
2022/12/24 10:08:46;;;;;;;;;;;;;;;5.72;76.17;100803.59;5109380;27;20343;-59
2022/12/24 10:11:27;;;;;;;;;;;;;;;5.74;76.36;100801.78;5104931;27;19915;-60
2022/12/24 10:13:52;;;;;;;;;;;;;;;5.70;76.24;100805.41;5108673;28;19922;-58
2022/12/24 10:16:27;;;;;;;;;;;;;;;5.73;76.81;100800.06;5105264;27;19919;-58
2022/12/24 10:19:08;;;;;;;;;;;;;;;5.73;76.24;100802.69;5108515;27;19916;-59
2022/12/24 10:21:56;;;;;;;;;;;;;;;5.75;76.69;100802.59;5106499;27;19920;-60
2022/12/24 10:24:29;;;;;;;;;;;;;;;5.79;76.17;100797.25;5099339;27;19920;-61
2022/12/24 10:26:57;;;;;;;;;;;;;;;5.78;76.54;100798.16;5101068;27;20427;-57
2022/12/24 10:29:25;;;;;;;;;;;;;;;5.75;76.62;100805.22;5085304;28;19928;-60
2022/12/24 10:31:57;;;;;;;;;;;;;;;5.83;76.62;100799.72;5083746;28;19919;-61
2022/12/24 10:34:23;;;;;;;;;;;;;;;5.86;76.34;100804.84;5077035;28;20275;-60
2022/12/24 10:36:49;;;;;;;;;;;;;;;5.93;76.91;100801.94;5099286;27;20019;-60
2022/12/24 10:39:24;;;;;;;;;;;;;;;5.94;76.24;100797.56;5088496;28;20018;-57
2022/12/24 10:41:51;;;;;;;;;;;;;;;5.97;76.03;100805.31;5105843;28;19920;-60
2022/12/24 10:44:19;;;;;;;;;;;;;;;5.98;76.38;100806.97;5085423;27;19989;-57
2022/12/24 10:46:45;;;;;;;;;;;;;;;6.02;76.48;100811.22;5108886;27;19919;-58
2022/12/24 10:49:15;;;;;;;;;;;;;;;6.09;76.30;100817.06;5085842;28;19919;-58
2022/12/24 10:51:46;;;;;;;;;;;;;;;6.13;76.36;100823.88;5101832;22;19940;-62
2022/12/24 10:54:14;;;;;;;;;;;;;;;6.17;76.14;100827.22;5035005;28;20006;-63
2022/12/24 10:56:41;;;;;;;;;;;;;;;6.21;76.55;100819.22;5042995;28;19927;-65
2022/12/24 10:59:21;;;;;;;;;;;;;;;6.25;76.33;100820.81;5041531;28;19979;-68
2022/12/24 11:01:48;;;;;;;;;;;;;;;6.27;76.25;100820.75;5055832;28;21232;-62
2022/12/24 11:04:17;;;;;;;;;;;;;;;6.31;76.41;100826.72;5058919;28;19924;-62
2022/12/24 11:06:53;;;;;;;;;;;;;;;6.33;76.07;100832.75;5052120;28;20011;-62
2022/12/24 11:09:20;;;;;;;;;;;;;;;6.36;76.03;100835.22;5046914;28;19935;-66
2022/12/24 11:11:46;;;;;;;;;;;;;;;6.33;75.84;100841.41;5030200;28;19929;-66
2022/12/24 11:14:14;;;;;;;;;;;;;;;6.30;75.68;100843.31;5058219;28;19931;-60
2022/12/24 11:16:46;;;;;;;;;;;;;;;6.30;75.91;100854.59;5060957;28;19994;-63
2022/12/24 11:19:16;;;;;;;;;;;;;;;6.31;76.25;100853.69;5059684;28;19917;-60
2022/12/24 11:21:41;;;;;;;;;;;;;;;6.34;76.27;100852.75;5061388;28;20019;-66
2022/12/24 11:24:12;;;;;;;;;;;;;;;6.36;76.04;100856.97;5062512;28;19916;-61
2022/12/24 11:26:38;;;;;;;;;;;;;;;6.38;75.99;100855.16;5064113;28;19974;-61
2022/12/24 11:29:04;;;;;;;;;;;;;;;6.42;76.06;100861.13;5064867;28;19940;-66
2022/12/24 11:31:31;;;;;;;;;;;;;;;6.41;76.30;100851.56;5064616;28;20311;-66
2022/12/24 11:33:57;;;;;;;;;;;;;;;6.45;76.32;100849.69;5072032;28;19974;-66
2022/12/24 11:36:23;;;;;;;;;;;;;;;6.44;76.08;100847.97;5066556;28;20019;-65
2022/12/24 11:38:52;;;;;;;;;;;;;;;6.46;76.24;100848.78;5068355;28;19916;-65
2022/12/24 11:41:18;;;;;;;;;;;;;;;6.50;76.42;100847.75;5058014;28;19920;-64
2022/12/24 11:43:45;;;;;;;;;;;;;;;6.52;76.22;100851.16;5062195;28;19925;-65
2022/12/24 11:46:13;;;;;;;;;;;;;;;6.55;76.31;100856.28;5056857;28;19936;-64
2022/12/24 11:48:38;;;;;;;;;;;;;;;6.58;76.04;100853.53;5061654;28;19936;-64
2022/12/24 11:51:05;;;;;;;;;;;;;;;6.61;76.07;100857.78;5069614;28;19913;-65
2022/12/24 11:53:35;;;;;;;;;;;;;;;6.64;76.25;100865.53;5067014;28;19962;-65
2022/12/24 11:56:04;;;;;;;;;;;;;;;6.63;75.98;100872.50;5063518;28;20110;-64
2022/12/24 11:58:29;;;;;;;;;;;;;;;6.62;76.10;100870.81;5072330;28;20476;-65
2022/12/24 12:01:01;;;;;;;;;;;;;;;6.61;76.00;100876.94;5067649;28;19925;-65
2022/12/24 12:03:37;;;;;;;;;;;;;;;6.63;76.07;100885.56;5054855;28;19931;-66
2022/12/24 12:06:05;;;;;;;;;;;;;;;6.64;76.21;100887.28;5063385;28;19921;-65
2022/12/24 12:08:32;;;;;;;;;;;;;;;6.61;76.38;100884.78;5066440;28;20002;-66
2022/12/24 12:10:58;;;;;;;;;;;;;;;6.56;75.81;100890.19;5056723;28;19950;-65
2022/12/24 12:13:32;;;;;;;;;;;;;;;6.55;76.37;100893.72;5060468;28;19925;-57
2022/12/24 12:16:16;;;;;;;;;;;;;;;6.55;76.00;100883.25;5064504;28;20029;-63
2022/12/24 12:18:46;;;;;;;;;;;;;;;6.53;76.03;100890.31;5066502;28;19927;-63
2022/12/24 12:21:11;;;;;;;;;;;;;;;6.54;76.14;100878.09;5059116;28;20003;-66
2022/12/24 12:23:43;;;;;;;;;;;;;;;6.54;76.54;100880.72;5066529;28;20007;-65
2022/12/24 12:26:16;;;;;;;;;;;;;;;6.57;76.44;100891.06;5067682;28;19921;-65
2022/12/24 12:29:03;;;;;;;;;;;;;;;6.57;76.62;100885.84;5071365;28;20481;-64
2022/12/24 12:31:28;;;;;;;;;;;;;;;6.55;76.62;100882.44;5064774;28;19916;-63
2022/12/24 12:33:53;;;;;;;;;;;;;;;6.59;76.47;100878.75;5069225;28;19916;-66
2022/12/24 12:36:23;;;;;;;;;;;;;;;6.60;76.45;100879.63;5067896;28;19962;-60
2022/12/24 12:38:50;;;;;;;;;;;;;;;6.59;76.56;100878.75;5068543;28;19924;-63
2022/12/24 12:41:15;;;;;;;;;;;;;;;6.59;76.69;100884.00;5062571;28;19920;-58
2022/12/24 12:43:43;;;;;;;;;;;;;;;6.61;76.79;100897.03;5073570;28;19924;-66
2022/12/24 12:46:14;;;;;;;;;;;;;;;6.63;76.84;100887.34;5067462;28;19932;-65
2022/12/24 12:48:55;;;;;;;;;;;;;;;6.64;76.67;100889.91;5069960;28;19924;-64
2022/12/24 12:51:35;;;;;;;;;;;;;;;6.64;76.80;100907.38;5065669;28;20568;-66
2022/12/24 12:54:20;;;;;;;;;;;;;;;6.59;76.70;100904.91;5064399;28;19939;-62
2022/12/24 12:56:48;;;;;;;;;;;;;;;6.60;76.84;100911.84;5064071;28;19921;-60